Time;durP1;ratioP1;P1;durP2;ratioP2;P2;SDS_P1;SDS_P2;PMS_P1;PMS_P2;Temp;Humidity;BMP_temperature;BMP_pressure;BME280_temperature;BME280_humidity;BME280_pressure;Samples;Min_cycle;Max_cycle;Signal;HPM_P1;HPM_P2
2021/01/21 00:01:05;;;;;;;14.07;8.02;;;1.30;99.90;;;;;;5008366;28;20030;-77
2021/01/21 00:03:33;;;;;;;13.30;7.18;;;1.20;99.90;;;;;;5012771;28;20034;-76
2021/01/21 00:06:00;;;;;;;16.52;8.43;;;1.10;99.90;;;;;;5019425;28;20044;-75
2021/01/21 00:08:26;;;;;;;13.25;8.02;;;1.00;99.90;;;;;;4991469;28;20520;-74
2021/01/21 00:10:52;;;;;;;16.25;8.82;;;0.90;99.90;;;;;;5032168;28;20040;-74
2021/01/21 00:13:18;;;;;;;15.73;8.60;;;0.90;99.90;;;;;;5034899;28;20025;-74
2021/01/21 00:15:44;;;;;;;15.25;8.32;;;0.80;99.90;;;;;;5052724;28;20805;-74
2021/01/21 00:18:09;;;;;;;18.40;9.55;;;0.80;99.90;;;;;;5033681;28;20397;-74
2021/01/21 00:20:35;;;;;;;15.55;8.40;;;0.80;99.90;;;;;;5034998;28;20041;-74
2021/01/21 00:23:01;;;;;;;15.93;9.07;;;0.90;99.90;;;;;;5052884;28;20040;-74
2021/01/21 00:25:27;;;;;;;15.27;8.10;;;0.90;99.90;;;;;;5052885;28;20025;-74
2021/01/21 00:27:52;;;;;;;13.75;8.35;;;0.80;99.90;;;;;;5033492;28;20040;-75
2021/01/21 00:30:19;;;;;;;15.13;8.45;;;0.80;99.90;;;;;;5052437;28;20064;-75
2021/01/21 00:32:44;;;;;;;15.73;8.85;;;0.80;99.90;;;;;;5035075;28;20056;-74
2021/01/21 00:35:13;;;;;;;16.38;8.95;;;0.80;99.90;;;;;;5036212;28;20025;-74
2021/01/21 00:37:39;;;;;;;19.42;8.80;;;0.80;99.90;;;;;;5011242;28;20084;-74
2021/01/21 00:40:05;;;;;;;13.68;8.27;;;0.80;99.90;;;;;;5011756;28;20034;-74
2021/01/21 00:42:32;;;;;;;14.98;8.93;;;0.80;99.90;;;;;;5012777;28;20494;-74
2021/01/21 00:44:58;;;;;;;15.65;9.43;;;0.80;99.90;;;;;;5011810;28;20049;-74
2021/01/21 00:47:25;;;;;;;16.30;9.73;;;0.80;99.90;;;;;;5011095;28;20041;-75
2021/01/21 00:49:50;;;;;;;20.02;9.43;;;0.80;99.90;;;;;;5011515;28;20445;-74
2021/01/21 00:52:16;;;;;;;14.18;8.63;;;0.80;99.90;;;;;;5011141;28;20048;-74
2021/01/21 00:54:42;;;;;;;15.32;8.75;;;0.90;99.90;;;;;;4994974;28;20034;-74
2021/01/21 00:57:09;;;;;;;15.23;8.52;;;0.90;99.90;;;;;;5019791;28;20064;-74
2021/01/21 00:59:35;;;;;;;14.45;8.68;;;0.80;99.90;;;;;;5052062;28;20079;-75
2021/01/21 01:02:01;;;;;;;20.83;9.32;;;0.90;99.90;;;;;;5034486;28;20052;-74
2021/01/21 01:04:28;;;;;;;15.63;9.13;;;0.90;99.90;;;;;;5017790;28;20033;-73
2021/01/21 01:06:54;;;;;;;16.02;8.75;;;0.90;99.90;;;;;;5032408;28;20040;-74
2021/01/21 01:09:21;;;;;;;16.52;9.18;;;1.00;99.90;;;;;;5022606;28;20367;-73
2021/01/21 01:11:48;;;;;;;17.67;9.65;;;1.00;99.90;;;;;;5014287;28;20037;-74
2021/01/21 01:14:14;;;;;;;13.10;8.35;;;0.90;99.90;;;;;;5014229;28;20594;-74
2021/01/21 01:16:41;;;;;;;17.17;8.02;;;0.90;99.90;;;;;;5012468;28;20025;-74
2021/01/21 01:19:08;;;;;;;16.55;8.55;;;0.90;99.90;;;;;;4998412;28;20387;-74
2021/01/21 01:21:34;;;;;;;13.70;8.02;;;0.90;99.90;;;;;;5031649;28;20040;-75
2021/01/21 01:24:00;;;;;;;16.13;9.15;;;0.80;99.90;;;;;;4997905;28;20029;-75
2021/01/21 01:26:26;;;;;;;15.65;8.70;;;0.80;99.90;;;;;;4996357;28;20185;-74
2021/01/21 01:29:01;;;;;;;16.50;8.65;;;0.80;99.90;;;;;;4998653;28;20489;-74
2021/01/21 01:31:26;;;;;;;14.80;8.98;;;0.80;99.90;;;;;;5014051;28;20079;-75
2021/01/21 01:33:53;;;;;;;15.00;8.40;;;0.80;99.90;;;;;;5013816;28;20039;-75
2021/01/21 01:36:20;;;;;;;17.20;8.05;;;0.80;99.90;;;;;;4978549;28;20113;-75
2021/01/21 01:38:46;;;;;;;16.30;8.90;;;0.80;99.90;;;;;;5020285;28;20106;-75
2021/01/21 01:41:30;;;;;;;14.75;8.68;;;0.80;99.90;;;;;;5031699;28;20535;-74
2021/01/21 01:43:56;;;;;;;13.82;8.23;;;0.90;99.90;;;;;;5013761;28;20153;-75
2021/01/21 01:46:26;;;;;;;14.27;8.63;;;0.90;99.90;;;;;;5011847;28;20037;-75
2021/01/21 01:48:59;;;;;;;18.58;8.80;;;0.90;99.90;;;;;;5013662;28;20053;-75
2021/01/21 01:51:30;;;;;;;17.45;8.88;;;0.90;99.90;;;;;;5013413;28;20038;-75
2021/01/21 01:53:59;;;;;;;13.55;8.35;;;0.90;99.90;;;;;;5013809;28;20454;-74
2021/01/21 01:56:28;;;;;;;16.10;8.43;;;1.00;99.90;;;;;;4995994;28;20041;-74
2021/01/21 01:59:02;;;;;;;14.60;7.90;;;1.00;99.90;;;;;;5005867;28;20029;-75
2021/01/21 02:01:41;;;;;;;13.45;7.88;;;1.00;99.90;;;;;;5005083;28;20885;-75
2021/01/21 02:04:14;;;;;;;14.65;8.27;;;1.00;99.90;;;;;;5018630;28;20112;-74
2021/01/21 02:06:53;;;;;;;12.05;7.70;;;1.00;99.90;;;;;;5007546;28;20034;-74
2021/01/21 02:09:19;;;;;;;16.02;7.95;;;1.00;99.90;;;;;;5012953;28;20090;-74
2021/01/21 02:12:13;;;;;;;13.85;8.02;;;1.00;99.90;;;;;;5013222;28;20494;-74
2021/01/21 02:14:51;;;;;;;18.73;8.38;;;1.00;99.90;;;;;;5013131;28;20030;-74
2021/01/21 02:17:28;;;;;;;15.32;7.80;;;1.00;99.90;;;;;;4995345;28;20056;-74
2021/01/21 02:20:13;;;;;;;13.80;8.13;;;1.10;99.90;;;;;;5012991;28;20056;-73
2021/01/21 02:23:00;;;;;;;13.60;7.55;;;1.10;99.90;;;;;;5012880;28;20025;-74
2021/01/21 02:25:50;;;;;;;13.27;7.85;;;1.10;99.90;;;;;;5013099;28;20033;-74
2021/01/21 02:28:39;;;;;;;12.60;7.50;;;1.10;99.90;;;;;;5011252;28;20061;-74
2021/01/21 02:31:26;;;;;;;17.85;8.15;;;1.20;99.90;;;;;;4996558;28;20037;-74
2021/01/21 02:33:56;;;;;;;15.15;8.13;;;1.20;99.90;;;;;;5010641;28;20025;-74
2021/01/21 02:36:39;;;;;;;13.40;7.40;;;1.20;99.90;;;;;;5006791;28;20037;-75
2021/01/21 02:39:14;;;;;;;11.63;7.43;;;1.10;99.90;;;;;;5012613;28;20091;-75
2021/01/21 02:41:42;;;;;;;16.13;8.25;;;1.10;99.90;;;;;;5009532;28;20494;-74
2021/01/21 02:44:08;;;;;;;15.70;7.75;;;1.00;99.90;;;;;;5012829;28;20052;-75
2021/01/21 02:46:36;;;;;;;13.77;7.88;;;1.00;99.90;;;;;;4994800;28;20038;-75
2021/01/21 02:49:02;;;;;;;15.13;8.77;;;0.90;99.90;;;;;;5011980;28;20030;-75
2021/01/21 02:51:47;;;;;;;13.63;7.85;;;0.80;99.90;;;;;;5012001;28;20034;-74
2021/01/21 02:54:25;;;;;;;12.45;7.10;;;0.70;99.90;;;;;;5030404;28;20505;-75
2021/01/21 02:57:04;;;;;;;11.68;6.90;;;0.70;99.90;;;;;;5010996;28;20079;-75
2021/01/21 02:59:33;;;;;;;12.25;7.10;;;0.60;99.90;;;;;;5012289;28;20505;-74
2021/01/21 03:02:01;;;;;;;13.20;6.85;;;0.60;99.90;;;;;;4996187;28;20087;-75
2021/01/21 03:04:29;;;;;;;13.88;7.15;;;0.60;99.90;;;;;;4996300;28;20624;-75
2021/01/21 03:06:59;;;;;;;12.65;7.68;;;0.60;99.90;;;;;;4994516;28;20120;-75
2021/01/21 03:09:35;;;;;;;13.82;7.03;;;0.70;99.90;;;;;;5012417;28;20034;-75
2021/01/21 03:12:23;;;;;;;12.20;7.07;;;0.70;99.90;;;;;;5012501;28;20026;-75
2021/01/21 03:14:53;;;;;;;11.02;6.78;;;0.70;99.90;;;;;;5012173;28;20708;-75
2021/01/21 03:17:25;;;;;;;13.38;6.95;;;0.80;99.90;;;;;;5011004;28;20032;-75
2021/01/21 03:20:02;;;;;;;12.02;7.43;;;0.80;99.90;;;;;;5012408;28;20036;-75
2021/01/21 03:22:28;;;;;;;13.25;7.43;;;0.90;99.90;;;;;;5012329;28;20033;-75
2021/01/21 03:24:54;;;;;;;11.80;6.72;;;0.90;99.90;;;;;;4996045;28;20414;-75
2021/01/21 03:27:30;;;;;;;12.65;6.82;;;0.90;99.90;;;;;;5010655;28;20038;-75
2021/01/21 03:30:08;;;;;;;13.10;7.78;;;0.90;99.90;;;;;;5012227;28;20039;-75
2021/01/21 03:32:34;;;;;;;13.15;6.55;;;0.90;99.90;;;;;;4995905;28;20091;-75
2021/01/21 03:35:00;;;;;;;16.00;7.68;;;0.90;99.90;;;;;;5005264;28;20718;-74
2021/01/21 03:37:26;;;;;;;12.75;6.65;;;0.80;99.90;;;;;;5007389;28;20457;-74
2021/01/21 03:39:53;;;;;;;12.35;7.15;;;0.90;99.90;;;;;;5008906;28;20042;-74
2021/01/21 03:42:29;;;;;;;11.77;6.93;;;0.90;99.90;;;;;;5010431;28;20034;-74
2021/01/21 03:45:13;;;;;;;13.45;6.75;;;0.90;99.90;;;;;;5003421;28;20029;-74
2021/01/21 03:47:39;;;;;;;12.77;6.68;;;1.00;99.90;;;;;;5027039;28;20065;-73
2021/01/21 03:50:06;;;;;;;10.95;6.00;;;1.10;99.90;;;;;;5012119;28;20045;-74
2021/01/21 03:52:35;;;;;;;13.32;6.88;;;1.20;99.90;;;;;;5028550;28;20061;-74
2021/01/21 03:55:05;;;;;;;11.50;6.70;;;1.20;99.90;;;;;;5028556;28;20040;-73
2021/01/21 03:57:31;;;;;;;12.63;6.68;;;1.30;99.90;;;;;;5026778;28;20040;-73
2021/01/21 04:00:14;;;;;;;11.07;6.55;;;1.30;99.90;;;;;;5014359;28;20087;-74
2021/01/21 04:02:45;;;;;;;11.38;6.70;;;1.50;99.90;;;;;;5031643;28;20124;-74
2021/01/21 04:05:25;;;;;;;14.30;7.15;;;1.50;99.90;;;;;;5017596;28;20034;-74
2021/01/21 04:07:52;;;;;;;14.05;6.70;;;1.50;99.90;;;;;;5030451;28;20030;-74
2021/01/21 04:10:18;;;;;;;10.00;5.93;;;1.50;99.90;;;;;;5033048;28;20121;-73
2021/01/21 04:13:06;;;;;;;10.68;6.13;;;1.50;99.90;;;;;;5002133;28;20029;-74
2021/01/21 04:15:32;;;;;;;10.65;6.20;;;1.60;99.90;;;;;;5015111;28;20029;-73
2021/01/21 04:17:59;;;;;;;8.85;6.55;;;1.60;99.90;;;;;;5013673;28;20021;-73
2021/01/21 04:20:25;;;;;;;12.98;6.82;;;1.70;99.90;;;;;;4998951;28;20037;-75
2021/01/21 04:22:54;;;;;;;12.10;6.40;;;1.70;99.90;;;;;;4999185;28;20091;-75
2021/01/21 04:25:20;;;;;;;12.60;7.07;;;1.60;99.90;;;;;;5015196;28;20513;-75
2021/01/21 04:27:51;;;;;;;10.32;6.05;;;1.60;99.90;;;;;;5013439;28;20461;-75
2021/01/21 04:30:20;;;;;;;10.90;6.78;;;1.50;99.90;;;;;;4999221;28;20057;-76
2021/01/21 04:32:46;;;;;;;11.15;6.07;;;1.60;99.90;;;;;;4998746;28;20401;-76
2021/01/21 04:35:15;;;;;;;10.05;5.45;;;1.60;99.90;;;;;;5014824;28;20034;-76
2021/01/21 04:37:46;;;;;;;13.05;6.10;;;1.60;99.90;;;;;;5013472;28;20037;-76
2021/01/21 04:40:44;;;;;;;11.02;6.18;;;1.70;99.90;;;;;;5014307;28;20050;-75
2021/01/21 04:43:29;;;;;;;9.70;5.68;;;1.90;99.90;;;;;;5017485;28;20170;-75
2021/01/21 04:46:07;;;;;;;8.73;5.30;;;1.90;99.90;;;;;;5014488;28;20033;-75
2021/01/21 04:48:35;;;;;;;9.02;5.70;;;2.00;99.90;;;;;;5014128;28;20064;-75
2021/01/21 04:51:11;;;;;;;14.20;6.47;;;2.00;99.90;;;;;;5014647;28;20033;-75
2021/01/21 04:53:46;;;;;;;10.18;6.65;;;2.00;99.90;;;;;;5014592;28;20512;-76
2021/01/21 04:56:27;;;;;;;10.63;5.88;;;2.10;99.90;;;;;;5013017;28;20083;-76
2021/01/21 04:59:29;;;;;;;9.23;5.72;;;2.10;99.90;;;;;;5014652;28;20564;-75
2021/01/21 05:01:56;;;;;;;9.88;5.68;;;2.20;99.90;;;;;;5014357;28;20079;-76
2021/01/21 05:04:22;;;;;;;9.43;5.43;;;2.20;99.90;;;;;;5024435;28;20052;-75
2021/01/21 05:07:09;;;;;;;10.50;6.28;;;2.30;99.90;;;;;;5050201;28;20104;-75
2021/01/21 05:09:36;;;;;;;10.77;6.07;;;2.30;99.90;;;;;;5020424;28;20033;-75
2021/01/21 05:12:06;;;;;;;10.88;5.57;;;2.30;99.90;;;;;;4998287;28;20033;-74
2021/01/21 05:14:32;;;;;;;10.15;4.95;;;2.30;99.90;;;;;;5031562;28;20121;-74
2021/01/21 05:17:37;;;;;;;9.82;4.85;;;2.50;99.90;;;;;;5015326;28;20101;-73
2021/01/21 05:20:09;;;;;;;8.55;4.88;;;2.60;99.90;;;;;;5015469;28;20073;-73
2021/01/21 05:23:02;;;;;;;6.87;4.40;;;2.70;99.90;;;;;;5031934;28;20625;-75
2021/01/21 05:25:52;;;;;;;13.23;6.10;;;2.80;99.90;;;;;;5031396;28;20444;-74
2021/01/21 05:28:39;;;;;;;8.13;5.22;;;2.80;99.90;;;;;;5008818;28;20037;-75
2021/01/21 05:31:15;;;;;;;9.98;5.68;;;2.70;99.90;;;;;;5013648;28;20040;-76
2021/01/21 05:33:45;;;;;;;10.38;5.63;;;2.60;99.90;;;;;;5009199;28;20029;-75
2021/01/21 05:36:15;;;;;;;12.15;6.28;;;2.60;99.90;;;;;;5010496;28;20397;-76
2021/01/21 05:39:04;;;;;;;11.30;6.07;;;2.50;99.90;;;;;;5003490;28;20025;-76
2021/01/21 05:41:49;;;;;;;26.88;12.90;;;2.40;99.90;;;;;;5029153;28;20044;-76
2021/01/21 05:44:28;;;;;;;20.70;10.30;;;2.40;99.90;;;;;;5013681;28;20128;-76
2021/01/21 05:47:16;;;;;;;12.93;7.10;;;2.30;99.90;;;;;;5027045;28;20037;-76
2021/01/21 05:49:42;;;;;;;10.25;6.20;;;2.30;99.90;;;;;;5011816;28;20489;-76
2021/01/21 05:52:13;;;;;;;12.88;7.20;;;2.30;99.90;;;;;;5013069;28;20036;-75
2021/01/21 05:54:40;;;;;;;10.95;7.18;;;2.30;99.90;;;;;;5009963;28;20021;-76
2021/01/21 05:57:11;;;;;;;11.77;6.70;;;2.30;99.90;;;;;;5029615;28;20037;-75
2021/01/21 05:59:38;;;;;;;12.32;6.40;;;2.30;99.90;;;;;;5031162;28;20136;-76
2021/01/21 06:02:21;;;;;;;11.43;6.60;;;2.20;99.90;;;;;;5013434;28;20039;-76
2021/01/21 06:04:59;;;;;;;10.65;6.22;;;2.10;99.90;;;;;;5028610;28;20045;-76
2021/01/21 06:07:30;;;;;;;12.65;5.93;;;2.10;99.90;;;;;;5015220;28;20037;-76
2021/01/21 06:09:58;;;;;;;10.68;5.65;;;2.10;99.90;;;;;;5034464;28;20072;-76
2021/01/21 06:12:27;;;;;;;13.57;6.43;;;2.10;99.90;;;;;;5030780;28;20041;-76
2021/01/21 06:14:59;;;;;;;15.38;7.65;;;2.20;99.90;;;;;;5046079;28;20429;-76
2021/01/21 06:17:28;;;;;;;12.43;6.75;;;2.30;99.90;;;;;;5049316;28;20068;-75
2021/01/21 06:20:13;;;;;;;14.13;6.95;;;2.30;99.90;;;;;;5050802;28;20047;-76
2021/01/21 06:22:43;;;;;;;16.63;10.32;;;2.40;99.90;;;;;;5032684;28;20025;-75
2021/01/21 06:25:14;;;;;;;16.33;8.23;;;2.30;99.90;;;;;;5032463;28;20179;-76
2021/01/21 06:27:42;;;;;;;13.57;7.78;;;2.30;99.90;;;;;;5049043;28;20033;-75
2021/01/21 06:30:13;;;;;;;11.45;6.55;;;2.30;99.90;;;;;;5050438;28;20508;-75
2021/01/21 06:33:03;;;;;;;13.75;8.07;;;2.30;99.90;;;;;;5050565;28;20053;-75
2021/01/21 06:35:34;;;;;;;15.68;7.72;;;2.30;99.90;;;;;;5020931;28;20026;-75
2021/01/21 06:38:22;;;;;;;12.32;6.65;;;2.40;99.90;;;;;;5019921;28;20053;-75
2021/01/21 06:40:52;;;;;;;11.75;6.25;;;2.40;99.90;;;;;;5013009;28;20044;-76
2021/01/21 06:43:26;;;;;;;11.82;6.75;;;2.40;99.90;;;;;;4996076;28;20029;-76
2021/01/21 06:45:56;;;;;;;11.43;6.55;;;2.40;99.90;;;;;;5012806;28;20045;-75
2021/01/21 06:48:22;;;;;;;11.85;6.13;;;2.50;99.90;;;;;;4995645;28;20036;-75
2021/01/21 06:50:49;;;;;;;12.52;6.35;;;2.50;99.90;;;;;;5026085;28;20033;-75
2021/01/21 06:53:15;;;;;;;13.40;6.68;;;2.50;99.90;;;;;;5012158;28;20021;-75
2021/01/21 06:55:47;;;;;;;11.60;7.15;;;2.50;99.90;;;;;;5038503;28;20025;-75
2021/01/21 06:58:13;;;;;;;16.23;8.00;;;2.50;99.90;;;;;;5041409;28;20026;-74
2021/01/21 07:00:44;;;;;;;10.93;6.40;;;2.50;99.90;;;;;;5030005;28;20112;-75
2021/01/21 07:03:29;;;;;;;12.30;6.55;;;2.40;99.90;;;;;;5013417;28;20053;-75
2021/01/21 07:06:00;;;;;;;11.32;6.05;;;2.40;99.90;;;;;;5017541;28;20037;-75
2021/01/21 07:08:26;;;;;;;12.35;6.82;;;2.40;99.90;;;;;;5042453;28;20025;-76
2021/01/21 07:10:58;;;;;;;11.48;6.65;;;2.30;99.90;;;;;;5049376;28;20029;-76
2021/01/21 07:13:25;;;;;;;8.18;5.70;;;2.20;99.90;;;;;;5049686;28;20017;-76
2021/01/21 07:15:57;;;;;;;10.73;5.93;;;2.20;99.90;;;;;;5049628;28;20052;-76
2021/01/21 07:18:29;;;;;;;19.23;11.27;;;2.20;99.90;;;;;;5048371;28;20037;-75
2021/01/21 07:21:02;;;;;;;15.25;8.57;;;2.30;99.90;;;;;;5049641;28;20048;-76
2021/01/21 07:23:52;;;;;;;31.95;16.63;;;2.40;99.90;;;;;;5044477;28;20037;-76
2021/01/21 07:26:25;;;;;;;14.93;8.65;;;2.50;99.90;;;;;;5012052;28;20057;-76
2021/01/21 07:29:00;;;;;;;12.00;6.65;;;2.50;99.90;;;;;;5045455;28;20033;-75
2021/01/21 07:31:26;;;;;;;9.65;6.25;;;2.50;99.90;;;;;;5049598;28;20025;-75
2021/01/21 07:34:29;;;;;;;6.28;3.97;;;2.50;99.90;;;;;;5031730;28;20109;-74
2021/01/21 07:37:29;;;;;;;6.55;3.90;;;2.70;99.90;;;;;;5046973;28;20118;-75
2021/01/21 07:39:59;;;;;;;8.95;3.92;;;2.90;99.90;;;;;;5032453;28;20037;-75
2021/01/21 07:42:36;;;;;;;9.60;4.72;;;3.00;99.90;;;;;;5046767;28;20389;-76
2021/01/21 07:45:16;;;;;;;7.90;5.03;;;3.00;99.90;;;;;;5033072;28;20022;-76
2021/01/21 07:47:43;;;;;;;9.73;5.25;;;3.00;99.90;;;;;;5038212;28;20382;-75
2021/01/21 07:52:55;;;;;;;8.55;4.22;;;3.20;99.90;;;;;;5051320;28;20025;-75
2021/01/21 07:55:36;;;;;;;6.82;3.72;;;3.30;99.90;;;;;;5042855;28;20040;-75
2021/01/21 07:58:28;;;;;;;7.40;3.78;;;3.30;99.90;;;;;;5042701;28;20025;-75
2021/01/21 08:00:58;;;;;;;6.78;3.17;;;3.40;99.90;;;;;;5029897;28;20389;-75
2021/01/21 08:03:39;;;;;;;5.90;3.30;;;3.40;99.90;;;;;;5045941;28;20029;-75
2021/01/21 08:06:07;;;;;;;7.38;3.22;;;3.40;99.90;;;;;;5032544;28;20091;-75
2021/01/21 08:08:32;;;;;;;5.55;2.88;;;3.40;99.90;;;;;;5032146;28;20025;-75
2021/01/21 08:11:11;;;;;;;6.72;4.38;;;3.50;99.90;;;;;;5050206;28;20500;-76
2021/01/21 08:13:38;;;;;;;8.48;4.78;;;3.50;99.90;;;;;;5049346;28;20033;-75
2021/01/21 08:16:05;;;;;;;8.25;4.75;;;3.60;99.90;;;;;;5034886;28;20116;-76
2021/01/21 08:18:34;;;;;;;10.73;5.50;;;3.60;99.90;;;;;;5037269;28;20400;-76
2021/01/21 08:20:59;;;;;;;11.23;5.70;;;3.60;99.90;;;;;;5020107;28;20060;-76
2021/01/21 08:23:25;;;;;;;7.75;4.50;;;3.50;99.90;;;;;;5017331;28;20482;-76
2021/01/21 08:25:55;;;;;;;11.00;5.20;;;3.50;99.90;;;;;;5044474;28;20032;-76
2021/01/21 08:28:28;;;;;;;8.88;4.93;;;3.50;99.90;;;;;;5035960;28;20436;-76
2021/01/21 08:30:54;;;;;;;8.18;4.43;;;3.50;99.90;;;;;;5038357;28;20460;-76
2021/01/21 08:33:24;;;;;;;8.48;4.63;;;3.40;99.90;;;;;;5030079;28;20065;-76
2021/01/21 08:35:55;;;;;;;7.90;4.78;;;3.40;99.90;;;;;;5013673;28;20026;-76
2021/01/21 08:38:30;;;;;;;9.15;5.03;;;3.40;99.90;;;;;;5018844;28;20029;-76
2021/01/21 08:40:57;;;;;;;7.63;4.90;;;3.30;99.90;;;;;;5022653;28;20089;-75
2021/01/21 08:43:24;;;;;;;10.13;6.07;;;3.30;99.90;;;;;;5028635;28;20029;-75
2021/01/21 08:45:51;;;;;;;10.10;5.88;;;3.30;99.90;;;;;;5018355;28;20451;-75
2021/01/21 08:48:31;;;;;;;9.65;5.65;;;3.40;99.90;;;;;;5031441;28;20030;-75
2021/01/21 08:50:58;;;;;;;9.35;5.40;;;3.40;99.90;;;;;;5032494;28;20044;-75
2021/01/21 08:53:26;;;;;;;11.23;5.75;;;3.40;99.90;;;;;;5046213;28;20409;-75
2021/01/21 08:55:53;;;;;;;10.00;5.43;;;3.40;99.90;;;;;;5030313;28;20041;-75
2021/01/21 08:58:30;;;;;;;9.43;5.90;;;3.50;99.90;;;;;;5034897;28;20064;-75
2021/01/21 09:01:11;;;;;;;11.02;5.47;;;3.50;99.90;;;;;;5032606;28;20025;-75
2021/01/21 09:03:53;;;;;;;11.88;5.80;;;3.40;99.90;;;;;;5018933;28;20033;-75
2021/01/21 09:06:20;;;;;;;9.63;5.28;;;3.40;99.90;;;;;;5033508;28;20772;-75
2021/01/21 09:08:54;;;;;;;9.38;5.43;;;3.40;99.90;;;;;;5039422;28;20413;-75
2021/01/21 09:11:34;;;;;;;9.73;5.45;;;3.40;99.90;;;;;;5020839;28;20025;-75
2021/01/21 09:14:04;;;;;;;12.07;5.82;;;3.40;99.90;;;;;;5042613;28;20025;-75
2021/01/21 09:16:44;;;;;;;13.85;6.32;;;3.50;99.90;;;;;;5030902;28;20382;-75
2021/01/21 09:19:14;;;;;;;8.82;5.13;;;3.50;99.90;;;;;;5045086;28;20090;-75
2021/01/21 09:22:13;;;;;;;9.95;6.43;;;3.50;99.90;;;;;;5039370;28;20048;-75
2021/01/21 09:25:00;;;;;;;9.45;5.35;;;3.60;99.90;;;;;;5019029;28;20040;-75
2021/01/21 09:27:28;;;;;;;27.00;12.00;;;3.60;99.90;;;;;;5034213;28;20026;-75
2021/01/21 09:29:56;;;;;;;46.33;18.75;;;3.60;99.90;;;;;;5045959;28;20029;-75
2021/01/21 09:32:33;;;;;;;13.77;8.23;;;3.60;99.90;;;;;;5023397;28;20112;-74
2021/01/21 09:35:03;;;;;;;12.05;7.13;;;3.70;99.90;;;;;;5034291;28;20029;-74
2021/01/21 09:37:33;;;;;;;14.40;7.53;;;3.70;99.90;;;;;;5039228;28;20112;-75
2021/01/21 09:39:59;;;;;;;13.25;6.72;;;3.60;99.90;;;;;;5017804;28;20094;-75
2021/01/21 09:42:24;;;;;;;8.32;5.47;;;3.70;99.90;;;;;;5033360;28;20029;-75
2021/01/21 09:44:51;;;;;;;8.63;4.45;;;3.80;99.90;;;;;;5034118;28;20053;-75
2021/01/21 09:47:17;;;;;;;8.90;5.30;;;3.80;99.90;;;;;;5004695;28;20029;-75
2021/01/21 09:49:45;;;;;;;7.90;4.45;;;4.00;99.90;;;;;;5034889;28;20401;-73
2021/01/21 09:52:12;;;;;;;8.68;4.85;;;4.30;99.90;;;;;;5036027;28;20026;-74
2021/01/21 09:54:38;;;;;;;6.82;4.68;;;4.50;99.90;;;;;;5020571;28;20473;-74
2021/01/21 09:57:04;;;;;;;8.43;4.55;;;4.70;99.90;;;;;;5022649;28;20029;-73
2021/01/21 09:59:30;;;;;;;8.88;4.75;;;4.90;99.90;;;;;;5019311;28;20021;-74
2021/01/21 10:01:56;;;;;;;7.03;4.25;;;5.10;99.90;;;;;;5037383;28;20553;-74
2021/01/21 10:04:22;;;;;;;8.60;4.82;;;5.20;99.90;;;;;;5025141;28;20025;-74
2021/01/21 10:06:48;;;;;;;8.82;4.20;;;5.30;99.90;;;;;;5037320;28;20117;-73
2021/01/21 10:09:14;;;;;;;7.38;4.05;;;5.30;99.90;;;;;;5038495;28;20112;-74
2021/01/21 10:11:39;;;;;;;6.82;4.70;;;5.20;99.90;;;;;;5039835;28;20028;-74
2021/01/21 10:14:06;;;;;;;8.52;5.05;;;5.20;99.90;;;;;;5012696;28;20104;-73
2021/01/21 10:16:32;;;;;;;7.22;4.60;;;5.20;99.90;;;;;;5026287;28;20099;-74
2021/01/21 10:18:58;;;;;;;8.18;4.53;;;5.20;99.90;;;;;;5034886;28;20481;-73
2021/01/21 10:21:24;;;;;;;9.60;4.80;;;5.40;99.90;;;;;;5030533;28;20425;-74
2021/01/21 10:23:50;;;;;;;7.32;3.83;;;5.60;99.90;;;;;;5030267;28;20029;-75
2021/01/21 10:26:16;;;;;;;6.63;4.13;;;5.70;99.90;;;;;;5024058;28;20026;-74
2021/01/21 10:28:42;;;;;;;7.78;4.43;;;5.80;99.90;;;;;;5024413;28;20025;-75
2021/01/21 10:31:08;;;;;;;8.65;3.88;;;5.80;99.90;;;;;;5021152;28;20049;-74
2021/01/21 10:33:36;;;;;;;7.60;4.63;;;5.60;99.90;;;;;;5007523;28;20085;-74
2021/01/21 10:36:05;;;;;;;7.40;4.05;;;5.60;99.90;;;;;;5004003;28;20474;-75
2021/01/21 10:38:32;;;;;;;7.97;4.38;;;5.50;99.90;;;;;;5024960;28;20060;-74
2021/01/21 10:40:58;;;;;;;7.78;4.55;;;5.40;99.90;;;;;;5023262;28;20041;-76
2021/01/21 10:43:24;;;;;;;6.53;3.78;;;5.30;99.90;;;;;;4997999;28;20396;-76
2021/01/21 10:45:50;;;;;;;5.80;4.00;;;5.30;99.90;;;;;;5026105;28;20030;-76
2021/01/21 10:48:16;;;;;;;5.18;2.15;;;5.30;99.90;;;;;;5013153;28;20041;-76
2021/01/21 10:50:42;;;;;;;1.17;0.70;;;5.40;99.90;;;;;;5026131;28;20030;-76
2021/01/21 10:53:08;;;;;;;1.85;0.43;;;5.50;99.90;;;;;;5026247;28;20739;-75
2021/01/21 10:55:34;;;;;;;1.05;0.73;;;5.70;99.90;;;;;;5025637;28;20104;-76
2021/01/21 10:58:00;;;;;;;2.28;0.60;;;5.80;99.90;;;;;;5002171;28;20149;-76
2021/01/21 11:00:26;;;;;;;0.90;0.50;;;6.00;99.90;;;;;;5026425;28;20112;-76
2021/01/21 11:02:52;;;;;;;3.67;0.73;;;6.10;99.90;;;;;;4992395;28;20548;-76
2021/01/21 11:05:18;;;;;;;1.58;0.70;;;6.20;99.90;;;;;;5026854;28;20029;-76
2021/01/21 11:07:44;;;;;;;0.77;0.50;;;6.30;99.90;;;;;;5019139;28;20030;-76
2021/01/21 11:10:10;;;;;;;0.65;0.55;;;6.40;99.90;;;;;;5000899;28;20409;-76
2021/01/21 11:12:36;;;;;;;0.60;0.60;;;6.40;99.90;;;;;;5028903;28;20046;-76
2021/01/21 11:15:05;;;;;;;1.60;0.50;;;6.50;99.90;;;;;;5030511;28;20383;-76
2021/01/21 11:17:30;;;;;;;0.57;0.57;;;6.60;99.90;;;;;;5029740;28;20116;-76
2021/01/21 11:19:56;;;;;;;1.05;0.50;;;6.70;99.90;;;;;;5031421;28;20709;-76
2021/01/21 11:22:25;;;;;;;1.27;0.65;;;6.90;99.90;;;;;;5033146;28;20038;-76
2021/01/21 11:24:51;;;;;;;1.63;0.60;;;7.00;99.90;;;;;;5032932;28;20037;-76
2021/01/21 11:27:17;;;;;;;1.95;0.55;;;7.00;99.90;;;;;;5031616;28;20128;-76
2021/01/21 11:29:43;;;;;;;0.70;0.50;;;7.10;99.90;;;;;;5029255;28;20069;-76
2021/01/21 11:32:10;;;;;;;1.17;0.73;;;7.10;99.90;;;;;;5026286;28;21056;-76
2021/01/21 11:34:35;;;;;;;0.55;0.55;;;7.10;99.90;;;;;;5026192;28;20374;-76
2021/01/21 11:37:01;;;;;;;2.00;0.70;;;7.20;99.90;;;;;;5024944;28;20076;-77
2021/01/21 11:39:27;;;;;;;0.85;0.70;;;7.20;99.90;;;;;;5030490;28;20056;-78
2021/01/21 11:41:53;;;;;;;1.60;0.50;;;7.10;99.90;;;;;;5030767;28;20531;-76
2021/01/21 11:44:19;;;;;;;0.50;0.45;;;7.10;99.90;;;;;;5026700;28;20497;-77
2021/01/21 11:46:45;;;;;;;0.70;0.70;;;7.10;99.90;;;;;;5029719;28;20033;-77
2021/01/21 11:49:10;;;;;;;2.25;0.73;;;7.10;99.90;;;;;;5018798;28;20029;-77
2021/01/21 11:51:36;;;;;;;1.63;0.60;;;7.10;99.90;;;;;;5014669;28;20083;-77
2021/01/21 11:54:02;;;;;;;0.68;0.43;;;7.20;99.90;;;;;;5012733;28;20066;-77
2021/01/21 11:56:28;;;;;;;1.23;0.60;;;7.20;99.90;;;;;;4996860;28;20041;-76
2021/01/21 11:58:54;;;;;;;1.80;0.88;;;7.20;99.90;;;;;;5013732;28;20056;-77
2021/01/21 12:01:19;;;;;;;2.40;0.95;;;7.30;99.90;;;;;;5031234;28;20605;-77
2021/01/21 12:03:45;;;;;;;0.63;0.55;;;7.30;99.90;;;;;;4996961;28;20068;-76
2021/01/21 12:06:11;;;;;;;1.27;0.80;;;7.30;99.90;;;;;;5024639;28;20037;-77
2021/01/21 12:08:37;;;;;;;0.52;0.47;;;7.30;99.90;;;;;;5010985;28;20034;-77
2021/01/21 12:11:02;;;;;;;1.00;0.57;;;7.30;99.90;;;;;;4997304;28;20045;-77
2021/01/21 12:13:28;;;;;;;0.52;0.35;;;7.40;99.90;;;;;;5003615;28;20025;-77
2021/01/21 12:15:54;;;;;;;0.70;0.50;;;7.40;99.90;;;;;;5012631;28;20121;-77
2021/01/21 12:18:20;;;;;;;4.35;0.52;;;7.50;99.90;;;;;;5013285;28;20033;-77
2021/01/21 12:20:46;;;;;;;2.35;0.47;;;7.60;99.90;;;;;;5012240;28;20041;-77
2021/01/21 12:23:13;;;;;;;3.05;0.60;;;7.60;99.90;;;;;;5030160;28;20029;-77
2021/01/21 12:25:38;;;;;;;0.50;0.40;;;7.70;99.90;;;;;;5012974;28;20036;-77
2021/01/21 12:28:04;;;;;;;1.08;0.55;;;7.80;99.90;;;;;;5029623;28;20034;-77
2021/01/21 12:30:30;;;;;;;0.65;0.40;;;7.80;99.90;;;;;;4997713;28;20065;-77
2021/01/21 12:32:55;;;;;;;0.73;0.63;;;7.90;99.90;;;;;;5012762;28;20036;-77
2021/01/21 12:35:21;;;;;;;1.77;0.45;;;7.90;99.90;;;;;;5012065;28;20098;-77
2021/01/21 12:37:47;;;;;;;0.77;0.40;;;8.00;99.90;;;;;;4995434;28;20497;-76
2021/01/21 12:40:13;;;;;;;4.22;0.60;;;8.00;99.90;;;;;;5011258;28;20033;-76
2021/01/21 12:42:39;;;;;;;0.63;0.40;;;8.00;99.90;;;;;;5034276;28;20493;-76
2021/01/21 12:45:06;;;;;;;1.65;0.60;;;8.00;99.90;;;;;;5032858;28;20120;-76
2021/01/21 12:47:31;;;;;;;0.32;0.32;;;7.90;99.90;;;;;;4995282;28;20038;-76
2021/01/21 12:49:57;;;;;;;2.05;0.60;;;7.90;99.90;;;;;;5013983;28;20083;-76
2021/01/21 12:52:23;;;;;;;1.67;0.50;;;7.90;99.90;;;;;;5033083;28;20022;-76
2021/01/21 12:54:49;;;;;;;1.08;0.50;;;8.00;99.90;;;;;;5012915;28;20396;-76
2021/01/21 12:57:17;;;;;;;0.50;0.32;;;8.00;99.90;;;;;;5016898;28;20099;-76
2021/01/21 12:59:47;;;;;;;0.70;0.22;;;7.90;99.90;;;;;;5021519;28;20017;-76
2021/01/21 13:02:14;;;;;;;1.25;0.40;;;7.90;99.90;;;;;;5010327;28;20033;-76
2021/01/21 13:04:40;;;;;;;1.08;0.38;;;7.80;99.90;;;;;;5003315;28;20033;-75
2021/01/21 13:07:06;;;;;;;0.85;0.30;;;7.80;99.90;;;;;;5010197;28;20036;-76
2021/01/21 13:09:33;;;;;;;0.30;0.30;;;7.80;99.90;;;;;;5031244;28;20111;-76
2021/01/21 13:11:58;;;;;;;0.75;0.30;;;7.70;99.90;;;;;;5031969;28;20475;-76